sensor_id;sensor_type;location;lat;lon;timestamp;pressure;altitude;pressure_sealevel;temperature;humidity
20983;BME280;10650;51.528;6.748;2022-11-15T00:01:18;100725.69;;;10.96;77.39
20983;BME280;10650;51.528;6.748;2022-11-15T00:03:46;100722.97;;;10.99;77.29
20983;BME280;10650;51.528;6.748;2022-11-15T00:06:15;100715.84;;;11.01;77.54
20983;BME280;10650;51.528;6.748;2022-11-15T00:08:43;100717.59;;;11.03;77.64
20983;BME280;10650;51.528;6.748;2022-11-15T00:11:11;100717.53;;;11.08;77.59
20983;BME280;10650;51.528;6.748;2022-11-15T00:13:39;100714.81;;;11.11;77.92
20983;BME280;10650;51.528;6.748;2022-11-15T00:16:08;100707.66;;;11.13;78.38
20983;BME280;10650;51.528;6.748;2022-11-15T00:18:37;100718.34;;;11.16;78.00
20983;BME280;10650;51.528;6.748;2022-11-15T00:21:07;100719.19;;;11.18;78.12
20983;BME280;10650;51.528;6.748;2022-11-15T00:23:37;100717.41;;;11.19;78.69
20983;BME280;10650;51.528;6.748;2022-11-15T00:26:05;100720.97;;;11.19;78.63
20983;BME280;10650;51.528;6.748;2022-11-15T00:28:32;100723.63;;;11.21;78.81
20983;BME280;10650;51.528;6.748;2022-11-15T00:31:01;100720.91;;;11.25;79.02
20983;BME280;10650;51.528;6.748;2022-11-15T00:33:29;100720.00;;;11.27;79.62
20983;BME280;10650;51.528;6.748;2022-11-15T00:36:00;100707.47;;;11.30;79.85
20983;BME280;10650;51.528;6.748;2022-11-15T00:38:31;100707.44;;;11.32;79.83
20983;BME280;10650;51.528;6.748;2022-11-15T00:41:01;100702.06;;;11.33;80.16
20983;BME280;10650;51.528;6.748;2022-11-15T00:43:35;100693.13;;;11.36;80.13
20983;BME280;10650;51.528;6.748;2022-11-15T00:46:02;100698.44;;;11.40;80.23
20983;BME280;10650;51.528;6.748;2022-11-15T00:48:30;100694.81;;;11.43;80.37
20983;BME280;10650;51.528;6.748;2022-11-15T00:50:58;100693.91;;;11.44;80.62
20983;BME280;10650;51.528;6.748;2022-11-15T00:53:26;100684.94;;;11.48;80.75
20983;BME280;10650;51.528;6.748;2022-11-15T00:55:54;100683.13;;;11.50;80.82
20983;BME280;10650;51.528;6.748;2022-11-15T00:58:23;100680.44;;;11.53;80.75
20983;BME280;10650;51.528;6.748;2022-11-15T01:00:50;100681.31;;;11.54;80.91
20983;BME280;10650;51.528;6.748;2022-11-15T01:03:18;100685.72;;;11.58;81.29
20983;BME280;10650;51.528;6.748;2022-11-15T01:05:46;100688.38;;;11.59;81.31
20983;BME280;10650;51.528;6.748;2022-11-15T01:08:14;100690.13;;;11.62;81.46
20983;BME280;10650;51.528;6.748;2022-11-15T01:10:42;100686.50;;;11.63;81.26
20983;BME280;10650;51.528;6.748;2022-11-15T01:13:10;100689.16;;;11.65;81.41
20983;BME280;10650;51.528;6.748;2022-11-15T01:15:40;100689.16;;;11.68;81.34
20983;BME280;10650;51.528;6.748;2022-11-15T01:18:08;100684.66;;;11.70;81.52
20983;BME280;10650;51.528;6.748;2022-11-15T01:20:39;100685.50;;;11.72;81.67
20983;BME280;10650;51.528;6.748;2022-11-15T01:23:07;100688.19;;;11.73;81.93
20983;BME280;10650;51.528;6.748;2022-11-15T01:25:34;100695.28;;;11.74;82.12
20983;BME280;10650;51.528;6.748;2022-11-15T01:28:02;100687.22;;;11.76;81.80
20983;BME280;10650;51.528;6.748;2022-11-15T01:30:30;100681.84;;;11.77;82.28
20983;BME280;10650;51.528;6.748;2022-11-15T01:32:59;100672.91;;;11.80;82.08
20983;BME280;10650;51.528;6.748;2022-11-15T01:35:27;100672.84;;;11.83;82.23
20983;BME280;10650;51.528;6.748;2022-11-15T01:37:55;100673.69;;;11.87;82.51
20983;BME280;10650;51.528;6.748;2022-11-15T01:40:22;100662.97;;;11.88;82.35
20983;BME280;10650;51.528;6.748;2022-11-15T01:42:50;100667.41;;;11.89;82.77
20983;BME280;10650;51.528;6.748;2022-11-15T01:45:18;100668.25;;;11.93;82.79
20983;BME280;10650;51.528;6.748;2022-11-15T01:47:48;100669.16;;;11.95;82.70
20983;BME280;10650;51.528;6.748;2022-11-15T01:50:20;100662.84;;;11.98;82.81
20983;BME280;10650;51.528;6.748;2022-11-15T01:52:49;100657.44;;;11.99;83.05
20983;BME280;10650;51.528;6.748;2022-11-15T01:55:21;100655.66;;;12.01;83.15
20983;BME280;10650;51.528;6.748;2022-11-15T01:57:51;100652.03;;;12.05;82.77
20983;BME280;10650;51.528;6.748;2022-11-15T02:00:20;100653.78;;;12.08;82.93
20983;BME280;10650;51.528;6.748;2022-11-15T02:02:48;100648.38;;;12.09;83.15
20983;BME280;10650;51.528;6.748;2022-11-15T02:05:16;100639.38;;;12.12;82.89
20983;BME280;10650;51.528;6.748;2022-11-15T02:07:45;100647.44;;;12.14;82.97
20983;BME280;10650;51.528;6.748;2022-11-15T02:10:18;100646.53;;;12.13;82.70
20983;BME280;10650;51.528;6.748;2022-11-15T02:12:47;100635.81;;;12.13;82.76
20983;BME280;10650;51.528;6.748;2022-11-15T02:15:15;100633.09;;;12.15;83.14
20983;BME280;10650;51.528;6.748;2022-11-15T02:17:54;100634.84;;;12.17;82.97
20983;BME280;10650;51.528;6.748;2022-11-15T02:23:57;100629.44;;;12.20;82.91
20983;BME280;10650;51.528;6.748;2022-11-15T02:29:43;100626.69;;;12.25;83.13
20983;BME280;10650;51.528;6.748;2022-11-15T02:32:20;100633.78;;;12.27;83.14
20983;BME280;10650;51.528;6.748;2022-11-15T02:34:56;100635.56;;;12.28;82.98
20983;BME280;10650;51.528;6.748;2022-11-15T02:37:34;100627.50;;;12.30;83.15
20983;BME280;10650;51.528;6.748;2022-11-15T02:40:11;100638.16;;;12.33;83.10
20983;BME280;10650;51.528;6.748;2022-11-15T02:42:45;100636.34;;;12.35;82.93
20983;BME280;10650;51.528;6.748;2022-11-15T02:45:38;100631.84;;;12.36;82.98
20983;BME280;10650;51.528;6.748;2022-11-15T02:48:09;100627.34;;;12.38;82.96
20983;BME280;10650;51.528;6.748;2022-11-15T02:50:38;100618.38;;;12.40;83.14
20983;BME280;10650;51.528;6.748;2022-11-15T02:53:08;100621.00;;;12.42;83.12
20983;BME280;10650;51.528;6.748;2022-11-15T02:55:37;100624.56;;;12.44;83.17
20983;BME280;10650;51.528;6.748;2022-11-15T02:58:32;100627.19;;;12.47;82.78
20983;BME280;10650;51.528;6.748;2022-11-15T03:01:08;100618.25;;;12.48;82.70
20983;BME280;10650;51.528;6.748;2022-11-15T03:03:55;100615.53;;;12.50;82.81
20983;BME280;10650;51.528;6.748;2022-11-15T03:06:33;100612.81;;;12.51;82.85
20983;BME280;10650;51.528;6.748;2022-11-15T03:09:07;100614.59;;;12.52;83.14
20983;BME280;10650;51.528;6.748;2022-11-15T03:11:40;100614.56;;;12.54;83.06
20983;BME280;10650;51.528;6.748;2022-11-15T03:14:19;100611.84;;;12.55;83.00
20983;BME280;10650;51.528;6.748;2022-11-15T03:16:51;100607.34;;;12.57;82.88
20983;BME280;10650;51.528;6.748;2022-11-15T03:19:30;100604.66;;;12.57;82.63
20983;BME280;10650;51.528;6.748;2022-11-15T03:22:03;100604.63;;;12.59;82.94
20983;BME280;10650;51.528;6.748;2022-11-15T03:24:36;100604.56;;;12.62;82.65
20983;BME280;10650;51.528;6.748;2022-11-15T03:27:06;100600.97;;;12.63;82.76
20983;BME280;10650;51.528;6.748;2022-11-15T03:29:38;100611.66;;;12.64;82.60
20983;BME280;10650;51.528;6.748;2022-11-15T03:32:10;100604.50;;;12.67;82.75
20983;BME280;10650;51.528;6.748;2022-11-15T03:34:44;100607.16;;;12.68;82.94
20983;BME280;10650;51.528;6.748;2022-11-15T03:37:15;100600.00;;;12.67;82.65
20983;BME280;10650;51.528;6.748;2022-11-15T03:39:44;100602.66;;;12.69;82.81
20983;BME280;10650;51.528;6.748;2022-11-15T03:42:20;100599.03;;;12.71;82.88
20983;BME280;10650;51.528;6.748;2022-11-15T03:44:54;100593.66;;;12.73;82.73
20983;BME280;10650;51.528;6.748;2022-11-15T03:47:29;100593.69;;;12.71;83.06
20983;BME280;10650;51.528;6.748;2022-11-15T03:50:04;100586.47;;;12.73;83.02
20983;BME280;10650;51.528;6.748;2022-11-15T03:52:35;100585.53;;;12.76;82.96
20983;BME280;10650;51.528;6.748;2022-11-15T03:55:05;100588.19;;;12.77;83.22
20983;BME280;10650;51.528;6.748;2022-11-15T03:57:34;100591.72;;;12.79;82.89
20983;BME280;10650;51.528;6.748;2022-11-15T04:00:03;100595.25;;;12.81;83.08
20983;BME280;10650;51.528;6.748;2022-11-15T04:02:31;100596.09;;;12.84;83.39
20983;BME280;10650;51.528;6.748;2022-11-15T04:05:00;100590.72;;;12.85;83.13
20983;BME280;10650;51.528;6.748;2022-11-15T04:07:28;100590.69;;;12.87;83.16
20983;BME280;10650;51.528;6.748;2022-11-15T04:09:56;100585.28;;;12.88;83.40
20983;BME280;10650;51.528;6.748;2022-11-15T04:12:30;100585.25;;;12.90;83.48
20983;BME280;10650;51.528;6.748;2022-11-15T04:14:59;100584.31;;;12.91;83.68
20983;BME280;10650;51.528;6.748;2022-11-15T04:17:38;100583.41;;;12.92;83.69
20983;BME280;10650;51.528;6.748;2022-11-15T04:20:10;100579.88;;;12.91;84.06
20983;BME280;10650;51.528;6.748;2022-11-15T04:22:58;100572.66;;;12.93;83.91
20983;BME280;10650;51.528;6.748;2022-11-15T04:25:44;100578.91;;;12.94;84.14
20983;BME280;10650;51.528;6.748;2022-11-15T04:28:12;100573.56;;;12.94;84.20
20983;BME280;10650;51.528;6.748;2022-11-15T04:30:39;100578.88;;;12.95;84.24
20983;BME280;10650;51.528;6.748;2022-11-15T04:33:07;100579.75;;;12.96;84.11
20983;BME280;10650;51.528;6.748;2022-11-15T04:35:36;100585.13;;;12.96;84.21
20983;BME280;10650;51.528;6.748;2022-11-15T04:38:06;100582.44;;;12.96;84.11
20983;BME280;10650;51.528;6.748;2022-11-15T04:40:34;100584.22;;;12.97;83.98
20983;BME280;10650;51.528;6.748;2022-11-15T04:43:02;100577.00;;;12.99;83.89
20983;BME280;10650;51.528;6.748;2022-11-15T04:45:30;100578.78;;;13.00;84.30
20983;BME280;10650;51.528;6.748;2022-11-15T04:47:58;100583.22;;;13.01;84.58
20983;BME280;10650;51.528;6.748;2022-11-15T04:50:26;100576.09;;;13.00;84.78
20983;BME280;10650;51.528;6.748;2022-11-15T04:52:55;100576.13;;;12.98;84.92
20983;BME280;10650;51.528;6.748;2022-11-15T04:55:22;100573.44;;;12.98;84.92
20983;BME280;10650;51.528;6.748;2022-11-15T04:57:57;100577.91;;;12.98;85.02
20983;BME280;10650;51.528;6.748;2022-11-15T05:00:25;100583.28;;;12.98;84.92
20983;BME280;10650;51.528;6.748;2022-11-15T05:02:53;100581.47;;;13.00;84.88
20983;BME280;10650;51.528;6.748;2022-11-15T05:05:38;100577.88;;;13.01;84.56
20983;BME280;10650;51.528;6.748;2022-11-15T05:08:07;100584.06;;;13.03;84.37
20983;BME280;10650;51.528;6.748;2022-11-15T05:10:35;100580.44;;;13.06;84.69
20983;BME280;10650;51.528;6.748;2022-11-15T05:13:03;100580.44;;;13.06;85.18
20983;BME280;10650;51.528;6.748;2022-11-15T05:15:30;100577.72;;;13.07;85.19
20983;BME280;10650;51.528;6.748;2022-11-15T05:17:58;100577.69;;;13.09;85.09
20983;BME280;10650;51.528;6.748;2022-11-15T05:20:26;100583.06;;;13.09;85.11
20983;BME280;10650;51.528;6.748;2022-11-15T05:22:54;100583.06;;;13.09;85.21
20983;BME280;10650;51.528;6.748;2022-11-15T05:25:23;100575.84;;;13.11;85.02
20983;BME280;10650;51.528;6.748;2022-11-15T05:27:51;100566.94;;;13.10;85.10
20983;BME280;10650;51.528;6.748;2022-11-15T05:30:19;100574.09;;;13.10;84.70
20983;BME280;10650;51.528;6.748;2022-11-15T05:32:47;100572.28;;;13.10;84.73
20983;BME280;10650;51.528;6.748;2022-11-15T05:35:29;100570.47;;;13.11;84.48
20983;BME280;10650;51.528;6.748;2022-11-15T05:37:57;100566.06;;;13.10;84.84
20983;BME280;10650;51.528;6.748;2022-11-15T05:40:27;100572.28;;;13.10;84.60
20983;BME280;10650;51.528;6.748;2022-11-15T05:42:57;100575.84;;;13.12;84.54
20983;BME280;10650;51.528;6.748;2022-11-15T05:45:25;100574.06;;;13.11;84.52
20983;BME280;10650;51.528;6.748;2022-11-15T05:47:55;100573.16;;;13.12;84.35
20983;BME280;10650;51.528;6.748;2022-11-15T05:50:24;100557.94;;;13.13;84.52
20983;BME280;10650;51.528;6.748;2022-11-15T05:52:54;100561.47;;;13.15;84.33
20983;BME280;10650;51.528;6.748;2022-11-15T05:55:30;100565.03;;;13.15;84.65
20983;BME280;10650;51.528;6.748;2022-11-15T05:57:59;100565.94;;;13.14;84.47
20983;BME280;10650;51.528;6.748;2022-11-15T06:00:28;100565.03;;;13.15;84.68
20983;BME280;10650;51.528;6.748;2022-11-15T06:02:55;100566.81;;;13.15;84.77
20983;BME280;10650;51.528;6.748;2022-11-15T06:05:23;100568.59;;;13.16;84.57
20983;BME280;10650;51.528;6.748;2022-11-15T06:07:51;100566.81;;;13.15;84.78
20983;BME280;10650;51.528;6.748;2022-11-15T06:10:19;100566.84;;;13.13;84.76
20983;BME280;10650;51.528;6.748;2022-11-15T06:12:56;100570.38;;;13.17;84.76
20983;BME280;10650;51.528;6.748;2022-11-15T06:15:23;100570.28;;;13.20;84.78
20983;BME280;10650;51.528;6.748;2022-11-15T06:17:51;100569.41;;;13.20;84.86
20983;BME280;10650;51.528;6.748;2022-11-15T06:20:23;100570.38;;;13.17;84.93
20983;BME280;10650;51.528;6.748;2022-11-15T06:22:56;100576.63;;;13.16;84.83
20983;BME280;10650;51.528;6.748;2022-11-15T06:25:24;100577.53;;;13.15;84.87
20983;BME280;10650;51.528;6.748;2022-11-15T06:27:54;100576.59;;;13.18;84.87
20983;BME280;10650;51.528;6.748;2022-11-15T06:30:23;100582.84;;;13.20;84.82
20983;BME280;10650;51.528;6.748;2022-11-15T06:32:51;100581.03;;;13.20;84.79
20983;BME280;10650;51.528;6.748;2022-11-15T06:35:25;100580.19;;;13.18;84.75
20983;BME280;10650;51.528;6.748;2022-11-15T06:37:53;100582.81;;;13.21;84.89
20983;BME280;10650;51.528;6.748;2022-11-15T06:40:20;100586.34;;;13.22;84.55
20983;BME280;10650;51.528;6.748;2022-11-15T06:42:48;100584.56;;;13.21;84.85
20983;BME280;10650;51.528;6.748;2022-11-15T06:45:17;100582.84;;;13.20;84.84
20983;BME280;10650;51.528;6.748;2022-11-15T06:47:45;100581.84;;;13.22;84.71
20983;BME280;10650;51.528;6.748;2022-11-15T06:50:13;100585.47;;;13.21;84.71
20983;BME280;10650;51.528;6.748;2022-11-15T06:52:41;100585.44;;;13.23;84.78
20983;BME280;10650;51.528;6.748;2022-11-15T06:55:09;100584.56;;;13.21;84.96
20983;BME280;10650;51.528;6.748;2022-11-15T06:57:37;100597.13;;;13.20;84.97
20983;BME280;10650;51.528;6.748;2022-11-15T07:00:05;100593.53;;;13.21;84.59
20983;BME280;10650;51.528;6.748;2022-11-15T07:02:34;100598.00;;;13.21;84.97
20983;BME280;10650;51.528;6.748;2022-11-15T07:05:02;100597.13;;;13.20;85.03
20983;BME280;10650;51.528;6.748;2022-11-15T07:07:30;100605.16;;;13.20;85.20
20983;BME280;10650;51.528;6.748;2022-11-15T07:10:00;100611.38;;;13.22;85.10
20983;BME280;10650;51.528;6.748;2022-11-15T07:12:28;100608.72;;;13.21;85.13
20983;BME280;10650;51.528;6.748;2022-11-15T07:14:55;100614.03;;;13.22;85.07
20983;BME280;10650;51.528;6.748;2022-11-15T07:17:23;100618.50;;;13.23;85.10
20983;BME280;10650;51.528;6.748;2022-11-15T07:19:52;100616.69;;;13.24;85.08
20983;BME280;10650;51.528;6.748;2022-11-15T07:22:20;100622.06;;;13.24;85.06
20983;BME280;10650;51.528;6.748;2022-11-15T07:24:48;100620.28;;;13.24;84.98
20983;BME280;10650;51.528;6.748;2022-11-15T07:27:15;100631.00;;;13.24;85.05
20983;BME280;10650;51.528;6.748;2022-11-15T07:29:44;100623.88;;;13.23;84.85
20983;BME280;10650;51.528;6.748;2022-11-15T07:32:11;100629.16;;;13.26;84.88
20983;BME280;10650;51.528;6.748;2022-11-15T07:34:39;100629.13;;;13.28;84.93
20983;BME280;10650;51.528;6.748;2022-11-15T07:37:09;100623.72;;;13.29;84.57
20983;BME280;10650;51.528;6.748;2022-11-15T07:39:36;100629.06;;;13.31;84.35
20983;BME280;10650;51.528;6.748;2022-11-15T07:42:04;100625.50;;;13.30;84.36
20983;BME280;10650;51.528;6.748;2022-11-15T07:44:50;100638.88;;;13.32;84.01
20983;BME280;10650;51.528;6.748;2022-11-15T07:47:17;100638.84;;;13.35;83.75
20983;BME280;10650;51.528;6.748;2022-11-15T07:49:45;100637.06;;;13.36;83.79
20983;BME280;10650;51.528;6.748;2022-11-15T07:52:14;100637.06;;;13.34;83.71
20983;BME280;10650;51.528;6.748;2022-11-15T07:54:42;100645.09;;;13.34;83.41
20983;BME280;10650;51.528;6.748;2022-11-15T07:57:10;100647.81;;;13.31;83.21
20983;BME280;10650;51.528;6.748;2022-11-15T07:59:38;100647.81;;;13.32;82.90
20983;BME280;10650;51.528;6.748;2022-11-15T08:02:05;100657.63;;;13.33;83.05
20983;BME280;10650;51.528;6.748;2022-11-15T08:04:33;100659.44;;;13.33;83.80
20983;BME280;10650;51.528;6.748;2022-11-15T08:07:01;100667.59;;;13.28;83.89
20983;BME280;10650;51.528;6.748;2022-11-15T08:09:30;100671.31;;;13.21;84.54
20983;BME280;10650;51.528;6.748;2022-11-15T08:11:58;100678.59;;;13.14;84.59
20983;BME280;10650;51.528;6.748;2022-11-15T08:14:25;100675.09;;;13.09;84.74
20983;BME280;10650;51.528;6.748;2022-11-15T08:16:54;100679.63;;;13.07;84.83
20983;BME280;10650;51.528;6.748;2022-11-15T08:19:22;100681.53;;;13.01;85.27
20983;BME280;10650;51.528;6.748;2022-11-15T08:21:49;100683.47;;;12.95;85.61
20983;BME280;10650;51.528;6.748;2022-11-15T08:24:17;100688.88;;;12.92;85.95
20983;BME280;10650;51.528;6.748;2022-11-15T08:26:46;100688.91;;;12.89;86.06
20983;BME280;10650;51.528;6.748;2022-11-15T08:29:14;100687.22;;;12.85;86.12
20983;BME280;10650;51.528;6.748;2022-11-15T08:31:42;100682.91;;;12.76;86.02
20983;BME280;10650;51.528;6.748;2022-11-15T08:34:09;100682.94;;;12.75;86.01
20983;BME280;10650;51.528;6.748;2022-11-15T08:36:37;100677.63;;;12.72;86.15
20983;BME280;10650;51.528;6.748;2022-11-15T08:39:11;100688.38;;;12.70;86.45
20983;BME280;10650;51.528;6.748;2022-11-15T08:41:39;100689.34;;;12.66;86.73
20983;BME280;10650;51.528;6.748;2022-11-15T08:44:08;100676.81;;;12.68;86.94
20983;BME280;10650;51.528;6.748;2022-11-15T08:46:36;100676.78;;;12.70;87.11
20983;BME280;10650;51.528;6.748;2022-11-15T08:49:04;100671.38;;;12.73;87.05
20983;BME280;10650;51.528;6.748;2022-11-15T08:51:32;100660.53;;;12.79;87.16
20983;BME280;10650;51.528;6.748;2022-11-15T08:53:59;100661.34;;;12.84;86.89
20983;BME280;10650;51.528;6.748;2022-11-15T08:56:27;100654.16;;;12.85;86.72
20983;BME280;10650;51.528;6.748;2022-11-15T08:58:55;100642.44;;;12.90;86.73
20983;BME280;10650;51.528;6.748;2022-11-15T09:01:24;100650.31;;;13.00;86.90
20983;BME280;10650;51.528;6.748;2022-11-15T09:03:52;100643.91;;;13.07;86.93
20983;BME280;10650;51.528;6.748;2022-11-15T09:06:20;100645.50;;;13.15;86.85
20983;BME280;10650;51.528;6.748;2022-11-15T09:08:47;100642.66;;;13.23;87.03
20983;BME280;10650;51.528;6.748;2022-11-15T09:11:15;100641.53;;;13.33;86.75
20983;BME280;10650;51.528;6.748;2022-11-15T09:13:46;100641.38;;;13.43;86.45
20983;BME280;10650;51.528;6.748;2022-11-15T09:16:14;100658.16;;;13.53;86.53
20983;BME280;10650;51.528;6.748;2022-11-15T09:18:43;100647.19;;;13.62;85.97
20983;BME280;10650;51.528;6.748;2022-11-15T09:21:12;100643.44;;;13.69;86.30
20983;BME280;10650;51.528;6.748;2022-11-15T09:23:40;100640.69;;;13.72;85.35
20983;BME280;10650;51.528;6.748;2022-11-15T09:26:08;100639.06;;;13.65;84.06
20983;BME280;10650;51.528;6.748;2022-11-15T09:28:36;100638.34;;;13.58;83.63
20983;BME280;10650;51.528;6.748;2022-11-15T09:31:05;100644.78;;;13.49;83.51
20983;BME280;10650;51.528;6.748;2022-11-15T09:33:33;100633.25;;;13.46;84.03
20983;BME280;10650;51.528;6.748;2022-11-15T09:36:05;100634.13;;;13.46;84.46
20983;BME280;10650;51.528;6.748;2022-11-15T09:38:34;100633.28;;;13.44;84.86
20983;BME280;10650;51.528;6.748;2022-11-15T09:41:32;100638.56;;;13.47;84.56
20983;BME280;10650;51.528;6.748;2022-11-15T09:44:15;100640.34;;;13.48;84.27
20983;BME280;10650;51.528;6.748;2022-11-15T09:46:58;100624.16;;;13.52;84.20
20983;BME280;10650;51.528;6.748;2022-11-15T09:49:29;100621.19;;;13.64;84.37
20983;BME280;10650;51.528;6.748;2022-11-15T09:51:59;100615.41;;;13.81;83.55
20983;BME280;10650;51.528;6.748;2022-11-15T09:54:30;100596.25;;;13.96;82.50
20983;BME280;10650;51.528;6.748;2022-11-15T09:57:21;100597.94;;;14.00;81.90
20983;BME280;10650;51.528;6.748;2022-11-15T09:59:58;100592.41;;;14.07;81.30
20983;BME280;10650;51.528;6.748;2022-11-15T10:03:06;100587.84;;;14.10;80.98
20983;BME280;10650;51.528;6.748;2022-11-15T10:05:38;100587.06;;;14.05;79.95
20983;BME280;10650;51.528;6.748;2022-11-15T10:08:19;100584.38;;;14.05;79.77
20983;BME280;10650;51.528;6.748;2022-11-15T10:10:54;100571.91;;;14.04;79.37
20983;BME280;10650;51.528;6.748;2022-11-15T10:13:45;100572.03;;;13.98;77.61
20983;BME280;10650;51.528;6.748;2022-11-15T10:16:25;100566.72;;;13.96;77.31
20983;BME280;10650;51.528;6.748;2022-11-15T10:19:03;100566.66;;;13.98;77.13
20983;BME280;10650;51.528;6.748;2022-11-15T10:21:40;100565.72;;;14.00;75.88
20983;BME280;10650;51.528;6.748;2022-11-15T10:24:13;100562.13;;;14.01;75.81
20983;BME280;10650;51.528;6.748;2022-11-15T10:26:46;100566.53;;;14.02;75.46
20983;BME280;10650;51.528;6.748;2022-11-15T10:29:18;100563.03;;;14.00;74.90
20983;BME280;10650;51.528;6.748;2022-11-15T10:31:52;100563.91;;;14.01;74.06
20983;BME280;10650;51.528;6.748;2022-11-15T10:34:22;100557.59;;;14.02;73.44
20983;BME280;10650;51.528;6.748;2022-11-15T10:36:54;100553.09;;;14.02;72.92
20983;BME280;10650;51.528;6.748;2022-11-15T10:39:24;100541.59;;;13.99;71.98
20983;BME280;10650;51.528;6.748;2022-11-15T10:41:52;100532.66;;;13.98;72.27
20983;BME280;10650;51.528;6.748;2022-11-15T10:44:23;100537.03;;;14.01;71.81
20983;BME280;10650;51.528;6.748;2022-11-15T10:47:07;100529.84;;;14.03;71.02
20983;BME280;10650;51.528;6.748;2022-11-15T10:49:57;100528.94;;;14.02;70.36
20983;BME280;10650;51.528;6.748;2022-11-15T10:52:26;100519.09;;;14.03;70.59
20983;BME280;10650;51.528;6.748;2022-11-15T10:54:59;100518.97;;;14.08;70.38
20983;BME280;10650;51.528;6.748;2022-11-15T10:57:32;100517.97;;;14.12;70.07
20983;BME280;10650;51.528;6.748;2022-11-15T11:00:03;100516.06;;;14.15;70.12
20983;BME280;10650;51.528;6.748;2022-11-15T11:02:34;100505.25;;;14.18;69.06
20983;BME280;10650;51.528;6.748;2022-11-15T11:05:05;100510.69;;;14.15;68.45
20983;BME280;10650;51.528;6.748;2022-11-15T11:07:34;100509.78;;;14.16;68.31
20983;BME280;10650;51.528;6.748;2022-11-15T11:10:17;100514.28;;;14.16;67.96
20983;BME280;10650;51.528;6.748;2022-11-15T11:13:13;100506.13;;;14.19;68.18
20983;BME280;10650;51.528;6.748;2022-11-15T11:15:44;100506.00;;;14.24;67.90
20983;BME280;10650;51.528;6.748;2022-11-15T11:18:19;100497.97;;;14.22;66.76
20983;BME280;10650;51.528;6.748;2022-11-15T11:20:56;100487.09;;;14.27;66.44
20983;BME280;10650;51.528;6.748;2022-11-15T11:23:44;100492.47;;;14.27;65.87
20983;BME280;10650;51.528;6.748;2022-11-15T11:26:33;100494.28;;;14.26;65.41
20983;BME280;10650;51.528;6.748;2022-11-15T11:29:14;100497.88;;;14.25;65.04
20983;BME280;10650;51.528;6.748;2022-11-15T11:31:52;100500.44;;;14.30;64.30
20983;BME280;10650;51.528;6.748;2022-11-15T11:34:35;100487.84;;;14.32;64.13
20983;BME280;10650;51.528;6.748;2022-11-15T11:37:11;100490.50;;;14.33;63.43
20983;BME280;10650;51.528;6.748;2022-11-15T11:39:47;100487.00;;;14.30;62.97
20983;BME280;10650;51.528;6.748;2022-11-15T11:42:26;100481.63;;;14.30;62.76
20983;BME280;10650;51.528;6.748;2022-11-15T11:45:06;100480.72;;;14.31;62.46
20983;BME280;10650;51.528;6.748;2022-11-15T11:47:40;100494.28;;;14.26;61.77
20983;BME280;10650;51.528;6.748;2022-11-15T11:50:13;100487.22;;;14.22;61.42
20983;BME280;10650;51.528;6.748;2022-11-15T11:52:44;100486.38;;;14.22;61.90
20983;BME280;10650;51.528;6.748;2022-11-15T11:55:21;100475.53;;;14.25;62.03
20983;BME280;10650;51.528;6.748;2022-11-15T11:58:03;100475.44;;;14.28;60.24
20983;BME280;10650;51.528;6.748;2022-11-15T12:00:34;100471.78;;;14.30;60.52
20983;BME280;10650;51.528;6.748;2022-11-15T12:03:09;100470.00;;;14.29;61.23
20983;BME280;10650;51.528;6.748;2022-11-15T12:05:40;100470.88;;;14.31;61.04
20983;BME280;10650;51.528;6.748;2022-11-15T12:08:25;100473.47;;;14.34;60.86
20983;BME280;10650;51.528;6.748;2022-11-15T12:11:03;100465.41;;;14.34;59.97
20983;BME280;10650;51.528;6.748;2022-11-15T12:13:36;100468.13;;;14.33;59.55
20983;BME280;10650;51.528;6.748;2022-11-15T12:16:10;100463.69;;;14.32;59.88
20983;BME280;10650;51.528;6.748;2022-11-15T12:18:41;100458.31;;;14.32;58.71
20983;BME280;10650;51.528;6.748;2022-11-15T12:21:16;100452.94;;;14.32;58.73
20983;BME280;10650;51.528;6.748;2022-11-15T12:23:55;100450.16;;;14.35;58.74
20983;BME280;10650;51.528;6.748;2022-11-15T12:26:30;100432.34;;;14.31;57.78
20983;BME280;10650;51.528;6.748;2022-11-15T12:29:04;100431.56;;;14.27;57.75
20983;BME280;10650;51.528;6.748;2022-11-15T12:31:38;100428.84;;;14.29;57.57
20983;BME280;10650;51.528;6.748;2022-11-15T12:34:33;100425.22;;;14.30;57.50
20983;BME280;10650;51.528;6.748;2022-11-15T12:37:46;100420.69;;;14.32;56.82
20983;BME280;10650;51.528;6.748;2022-11-15T12:40:36;100421.56;;;14.32;57.27
20983;BME280;10650;51.528;6.748;2022-11-15T12:45:54;100400.16;;;14.29;55.86
20983;BME280;10650;51.528;6.748;2022-11-15T12:48:51;100401.03;;;14.30;56.15
20983;BME280;10650;51.528;6.748;2022-11-15T12:51:21;100392.84;;;14.34;56.76
20983;BME280;10650;51.528;6.748;2022-11-15T12:53:49;100378.41;;;14.39;56.32
20983;BME280;10650;51.528;6.748;2022-11-15T12:56:21;100372.88;;;14.43;56.65
20983;BME280;10650;51.528;6.748;2022-11-15T12:58:55;100371.97;;;14.43;55.85
20983;BME280;10650;51.528;6.748;2022-11-15T13:01:59;100357.72;;;14.41;54.22
20983;BME280;10650;51.528;6.748;2022-11-15T13:04:29;100355.91;;;14.41;54.57
20983;BME280;10650;51.528;6.748;2022-11-15T13:07:00;100357.56;;;14.45;54.79
20983;BME280;10650;51.528;6.748;2022-11-15T13:09:54;100345.84;;;14.48;54.62
20983;BME280;10650;51.528;6.748;2022-11-15T13:12:48;100346.78;;;14.47;53.64
20983;BME280;10650;51.528;6.748;2022-11-15T13:15:55;100336.94;;;14.47;53.97
20983;BME280;10650;51.528;6.748;2022-11-15T13:18:37;100329.72;;;14.48;53.89
20983;BME280;10650;51.528;6.748;2022-11-15T13:21:19;100328.75;;;14.50;53.83
20983;BME280;10650;51.528;6.748;2022-11-15T13:24:05;100337.69;;;14.51;54.11
20983;BME280;10650;51.528;6.748;2022-11-15T13:26:38;100335.00;;;14.51;54.46